Time;durP1;ratioP1;P1;durP2;ratioP2;P2;SDS_P1;SDS_P2;PMS_P1;PMS_P2;Temp;Humidity;BMP_temperature;BMP_pressure;BME280_temperature;BME280_humidity;BME280_pressure;Samples;Min_cycle;Max_cycle;Signal;HPM_P1;HPM_P2
2023/10/07 00:00:31;;;;;;;13.23;6.70;;;;;;;14.66;100.00;101561.25;7372842;19;20446;-37
2023/10/07 00:03:04;;;;;;;16.03;9.43;;;;;;;14.67;100.00;101544.84;7393766;19;20392;-39
2023/10/07 00:05:35;;;;;;;11.50;8.47;;;;;;;14.68;100.00;101551.81;7372608;19;20434;-36
2023/10/07 00:08:08;;;;;;;22.77;8.67;;;;;;;14.68;100.00;101574.31;7392855;19;20463;-37
2023/10/07 00:10:38;;;;;;;17.67;8.80;;;;;;;14.67;100.00;101499.84;7370508;19;20468;-36
2023/10/07 00:13:09;;;;;;;17.77;9.10;;;;;;;14.70;100.00;101489.53;7396110;19;20384;-40
2023/10/07 00:15:42;;;;;;;15.67;7.03;;;;;;;14.67;100.00;101510.22;7370767;19;20430;-37
2023/10/07 00:18:18;;;;;;;16.20;7.50;;;;;;;14.68;100.00;101509.38;7394645;19;20380;-37
2023/10/07 00:20:51;;;;;;;16.40;7.37;;;;;;;14.68;100.00;101523.22;7367996;19;20777;-37
2023/10/07 00:23:22;;;;;;;20.70;9.17;;;;;;;14.71;100.00;101518.16;7395754;19;20391;-37
2023/10/07 00:25:53;;;;;;;19.20;8.50;;;;;;;14.70;100.00;101526.78;7371801;19;20455;-37
2023/10/07 00:28:28;;;;;;;13.43;7.20;;;;;;;14.70;100.00;101529.41;7394883;19;20812;-37
2023/10/07 00:31:02;;;;;;;14.27;7.77;;;;;;;14.71;100.00;101518.16;7369811;19;20509;-37
2023/10/07 00:33:50;;;;;;;16.53;7.97;;;;;;;14.72;100.00;101526.88;7392882;19;20408;-38
2023/10/07 00:36:41;;;;;;;16.00;7.70;;;;;;;14.71;100.00;101585.69;7369877;19;20423;-37
2023/10/07 00:39:20;;;;;;;13.60;7.50;;;;;;;14.70;100.00;101506.03;7370227;19;20377;-37
2023/10/07 00:41:57;;;;;;;10.30;7.43;;;;;;;14.70;100.00;101506.03;7392202;19;20435;-38
2023/10/07 00:44:31;;;;;;;14.00;6.17;;;;;;;14.71;100.00;101497.41;7371136;19;20383;-37
2023/10/07 00:47:12;;;;;;;16.80;7.60;;;;;;;14.72;100.00;101496.56;7391960;19;20395;-39
2023/10/07 00:49:52;;;;;;;15.13;8.13;;;;;;;14.73;100.00;101487.06;7370629;19;20486;-37
2023/10/07 00:52:33;;;;;;;11.77;7.23;;;;;;;14.73;100.00;101487.06;7397125;19;20400;-37
2023/10/07 00:55:18;;;;;;;12.03;6.63;;;;;;;14.74;100.00;101477.53;7371298;19;20387;-37
2023/10/07 00:57:53;;;;;;;11.20;7.03;;;;;;;14.72;100.00;101478.38;7392354;19;20394;-40
2023/10/07 01:03:31;;;;;;;14.57;7.13;;;;;;;14.72;100.00;101483.56;7392352;19;20408;-37
2023/10/07 01:06:12;;;;;;;11.60;8.00;;;;;;;14.69;100.00;101488.69;7367096;19;20793;-37
2023/10/07 01:08:45;;;;;;;13.17;7.40;;;;;;;14.69;100.00;101504.25;7396150;19;20810;-38
2023/10/07 01:11:24;;;;;;;15.83;8.40;;;;;;;14.71;100.00;101478.31;7372415;19;20474;-38
2023/10/07 01:13:56;;;;;;;15.30;9.03;;;;;;;14.72;100.00;101480.97;7371930;19;20436;-37
2023/10/07 01:16:34;;;;;;;12.70;7.30;;;;;;;14.70;100.00;101495.63;7396289;19;20478;-38
2023/10/07 01:19:18;;;;;;;13.47;8.73;;;;;;;14.72;100.00;101482.72;7373937;19;20407;-38
2023/10/07 01:21:54;;;;;;;14.43;8.17;;;;;;;14.72;100.00;101483.56;7395658;19;20435;-39
2023/10/07 01:24:44;;;;;;;14.47;8.80;;;;;;;14.70;100.00;101490.44;7372571;19;21017;-37
2023/10/07 01:27:22;;;;;;;16.77;8.20;;;;;;;14.70;100.00;101485.25;7396683;19;20523;-37
2023/10/07 01:29:59;;;;;;;12.93;8.13;;;;;;;14.70;100.00;101484.34;7370685;19;20510;-37
2023/10/07 01:32:32;;;;;;;14.10;8.60;;;;;;;14.69;100.00;101465.31;7395594;19;20411;-38
2023/10/07 01:35:05;;;;;;;17.10;6.70;;;;;;;14.68;100.00;101476.50;7371974;19;20539;-38
2023/10/07 01:37:43;;;;;;;9.90;6.60;;;;;;;14.68;100.00;101466.09;7397678;19;20407;-37
2023/10/07 01:40:17;;;;;;;8.13;5.87;;;;;;;14.67;100.00;101469.53;7369792;19;20469;-38
2023/10/07 01:42:47;;;;;;;24.43;13.90;;;;;;;14.69;100.00;101464.41;7398228;19;20403;-37
2023/10/07 01:45:22;;;;;;;44.53;20.57;;;;;;;14.70;100.00;101468.75;7372861;19;20448;-38
2023/10/07 01:47:55;;;;;;;12.73;6.90;;;;;;;14.69;100.00;101464.41;7396218;19;20403;-39
2023/10/07 01:50:25;;;;;;;9.43;6.17;;;;;;;14.69;100.00;101462.69;7370774;19;20503;-37
2023/10/07 01:52:58;;;;;;;10.63;5.90;;;;;;;14.68;100.00;101450.53;7391389;19;20943;-37
2023/10/07 01:55:30;;;;;;;10.87;6.17;;;;;;;14.67;100.00;101490.31;7372341;19;20779;-37
2023/10/07 01:58:00;;;;;;;8.60;5.60;;;;;;;14.67;100.00;101438.38;7394337;19;20395;-38
2023/10/07 02:00:43;;;;;;;14.57;5.60;;;;;;;14.66;100.00;101447.00;7371140;19;20522;-40
2023/10/07 02:03:17;;;;;;;5.13;3.37;;;;;;;14.69;100.00;101452.31;7395357;19;20411;-39
2023/10/07 02:05:49;;;;;;;8.00;4.87;;;;;;;14.67;100.00;101448.75;7372636;19;20423;-38
2023/10/07 02:08:20;;;;;;;7.77;4.40;;;;;;;14.68;100.00;101454.84;7396927;19;20422;-38
2023/10/07 02:10:57;;;;;;;10.53;5.13;;;;;;;14.68;100.00;101465.22;7370229;19;20458;-38
2023/10/07 02:13:28;;;;;;;7.17;4.80;;;;;;;14.69;100.00;101474.78;7396085;19;20409;-39
2023/10/07 02:15:58;;;;;;;4.97;3.27;;;;;;;14.71;100.00;101474.03;7372143;19;20431;-39
2023/10/07 02:18:29;;;;;;;5.20;3.73;;;;;;;14.69;100.00;101462.69;7395394;19;20395;-41
2023/10/07 02:21:08;;;;;;;10.33;3.60;;;;;;;14.70;100.00;101474.84;7370013;19;20454;-38
2023/10/07 02:23:40;;;;;;;6.00;3.10;;;;;;;14.66;100.00;101456.50;7394679;19;20419;-39
2023/10/07 02:26:19;;;;;;;6.07;3.00;;;;;;;14.66;100.00;101462.56;7371424;19;20427;-39
2023/10/07 02:28:51;;;;;;;5.30;2.90;;;;;;;14.70;100.00;101446.28;7395063;19;20422;-38
2023/10/07 02:31:22;;;;;;;7.80;5.80;;;;;;;14.70;100.00;101450.59;7371489;19;20463;-37
2023/10/07 02:33:57;;;;;;;3.70;2.70;;;;;;;14.71;100.00;101444.56;7384949;19;20414;-38
2023/10/07 02:36:36;;;;;;;3.00;1.80;;;;;;;14.76;100.00;101436.97;7396228;19;20482;-37
2023/10/07 02:39:18;;;;;;;4.33;2.33;;;;;;;14.71;100.00;101429.88;7372463;19;20938;-38
2023/10/07 02:41:52;;;;;;;5.90;3.23;;;;;;;14.67;100.00;101438.38;7393794;19;20471;-37
2023/10/07 02:44:27;;;;;;;6.30;3.60;;;;;;;14.64;100.00;101438.28;7371239;19;20395;-37
2023/10/07 02:46:58;;;;;;;8.53;2.47;;;;;;;14.57;100.00;101441.47;7391749;19;20939;-38
2023/10/07 02:49:28;;;;;;;5.33;2.27;;;;;;;14.52;100.00;101438.69;7371485;19;20792;-39
2023/10/07 02:51:58;;;;;;;4.33;1.50;;;;;;;14.47;100.00;101449.75;7390790;19;20440;-39
2023/10/07 02:54:32;;;;;;;6.93;2.80;;;;;;;14.42;100.00;101450.47;7370824;19;20416;-39
2023/10/07 02:57:21;;;;;;;6.33;1.60;;;;;;;14.41;100.00;101456.47;7394016;19;20395;-38
2023/10/07 03:00:10;;;;;;;6.53;1.50;;;;;;;14.38;100.00;101446.00;7368928;19;20427;-37
2023/10/07 03:02:48;;;;;;;4.60;1.80;;;;;;;14.36;100.00;101439.84;7394963;19;20427;-38
2023/10/07 03:05:29;;;;;;;4.73;1.40;;;;;;;14.32;100.00;101440.59;7371359;19;20427;-38
2023/10/07 03:08:06;;;;;;;2.20;1.20;;;;;;;14.25;100.00;101442.06;7394254;19;20780;-38
2023/10/07 03:10:43;;;;;;;5.50;2.00;;;;;;;14.12;100.00;101440.72;7369145;19;20447;-38
2023/10/07 03:13:18;;;;;;;4.10;1.80;;;;;;;14.07;100.00;101478.56;7393776;19;20395;-38
2023/10/07 03:16:09;;;;;;;7.30;2.00;;;;;;;14.00;100.00;101467.06;7370209;19;20516;-39
2023/10/07 03:18:38;;;;;;;16.70;2.50;;;;;;;13.97;100.00;101466.06;7395247;19;20475;-39
2023/10/07 03:21:11;;;;;;;16.87;2.50;;;;;;;13.91;100.00;101470.16;7368688;19;20999;-37
2023/10/07 03:23:46;;;;;;;5.17;2.37;;;;;;;13.89;100.00;101471.84;7393335;19;20419;-38
2023/10/07 03:26:17;;;;;;;7.20;2.00;;;;;;;13.87;100.00;101473.50;7371923;19;20498;-38
2023/10/07 03:28:51;;;;;;;3.57;1.23;;;;;;;13.83;100.00;101476.78;7395607;19;20436;-38
2023/10/07 03:31:33;;;;;;;5.20;2.03;;;;;;;13.80;100.00;101466.28;7369541;19;20481;-38
2023/10/07 03:34:07;;;;;;;5.00;1.87;;;;;;;13.85;100.00;101463.88;7364087;19;20396;-38
2023/10/07 03:36:45;;;;;;;7.23;2.00;;;;;;;13.78;100.00;101462.72;7393793;19;21200;-38
2023/10/07 03:39:42;;;;;;;5.90;1.30;;;;;;;13.76;100.00;101584.56;7369789;19;20395;-38
2023/10/07 03:42:14;;;;;;;6.00;1.70;;;;;;;13.80;100.00;101453.31;7392035;19;20435;-38
2023/10/07 03:44:47;;;;;;;6.87;2.43;;;;;;;13.81;100.00;101457.69;7369427;19;20930;-38
2023/10/07 03:47:17;;;;;;;7.13;1.77;;;;;;;13.80;100.00;101461.09;7391451;19;20420;-38
2023/10/07 03:49:52;;;;;;;8.50;1.93;;;;;;;13.80;100.00;101450.72;7369203;19;20463;-39
2023/10/07 03:52:27;;;;;;;8.10;1.57;;;;;;;13.75;100.00;101460.03;7391488;19;20411;-38
2023/10/07 03:54:59;;;;;;;6.27;1.87;;;;;;;13.69;100.00;101467.56;7367471;19;20446;-38
2023/10/07 03:57:29;;;;;;;7.43;1.87;;;;;;;13.63;100.00;101474.28;7391654;19;20416;-37
2023/10/07 04:00:01;;;;;;;12.70;2.50;;;;;;;13.62;100.00;101481.97;7368612;19;20419;-38
2023/10/07 04:02:41;;;;;;;9.37;2.30;;;;;;;13.58;100.00;101486.16;7391227;19;20474;-38
2023/10/07 04:05:13;;;;;;;14.57;2.10;;;;;;;13.55;100.00;101496.41;7367850;19;20431;-38
2023/10/07 04:07:43;;;;;;;13.17;3.40;;;;;;;13.48;100.00;101502.13;7393878;19;20415;-38
2023/10/07 04:10:21;;;;;;;10.60;2.63;;;;;;;13.38;100.00;101490.47;7367579;19;20490;-38
2023/10/07 04:12:56;;;;;;;17.63;2.67;;;;;;;13.35;100.00;101509.38;7391714;19;20436;-38
2023/10/07 04:15:34;;;;;;;18.93;3.13;;;;;;;13.31;100.00;101530.81;7371503;19;20972;-38
2023/10/07 04:18:09;;;;;;;17.13;2.90;;;;;;;13.29;100.00;101503.94;7397162;19;20474;-39
2023/10/07 04:20:51;;;;;;;7.60;2.67;;;;;;;13.22;100.00;101509.66;7373874;19;21019;-38
2023/10/07 04:23:24;;;;;;;10.93;3.37;;;;;;;13.14;100.00;101505.88;7397384;19;21065;-37
2023/10/07 04:25:56;;;;;;;15.57;3.23;;;;;;;13.07;100.00;101504.72;7375442;19;20490;-37
2023/10/07 04:28:27;;;;;;;10.57;3.47;;;;;;;13.04;100.00;101510.66;7398317;19;20409;-37
2023/10/07 04:31:00;;;;;;;14.50;3.07;;;;;;;13.01;100.00;101507.94;7373263;19;20639;-37
2023/10/07 04:33:32;;;;;;;23.40;2.97;;;;;;;12.99;100.00;101498.31;7400992;19;20395;-38
2023/10/07 04:36:06;;;;;;;15.10;2.73;;;;;;;13.04;100.00;101496.81;7375040;19;20455;-39
2023/10/07 04:38:53;;;;;;;15.63;3.27;;;;;;;12.97;100.00;101493.06;7400937;19;20406;-37
2023/10/07 04:41:30;;;;;;;12.20;2.83;;;;;;;13.00;100.00;101490.63;7375062;19;20522;-38
2023/10/07 04:44:20;;;;;;;18.77;3.33;;;;;;;13.00;100.00;101493.22;7376240;19;20969;-37
2023/10/07 04:46:56;;;;;;;12.50;3.10;;;;;;;13.00;100.00;101494.91;7399995;19;20399;-37
2023/10/07 04:49:36;;;;;;;10.30;2.43;;;;;;;12.95;100.00;101497.28;7373708;19;20394;-40
2023/10/07 04:52:07;;;;;;;19.13;3.30;;;;;;;12.98;100.00;101497.44;7395179;19;20476;-38
2023/10/07 04:54:43;;;;;;;18.70;3.33;;;;;;;12.97;100.00;101495.66;7374559;19;20430;-37
2023/10/07 04:57:10;;;;;;;14.60;2.40;;;;;;;12.96;100.00;101499.06;7395733;19;20475;-38
2023/10/07 04:59:45;;;;;;;20.57;2.87;;;;;;;12.92;100.00;101503.22;7374197;19;20419;-38
2023/10/07 05:02:15;;;;;;;12.77;2.47;;;;;;;12.94;100.00;101505.88;7395713;19;20516;-37
2023/10/07 05:04:50;;;;;;;12.03;2.60;;;;;;;12.96;100.00;101510.31;7375820;19;20437;-39
2023/10/07 05:07:24;;;;;;;22.83;3.00;;;;;;;12.98;100.00;101507.81;7398571;19;20410;-37
2023/10/07 05:09:56;;;;;;;10.20;2.47;;;;;;;12.99;100.00;101519.94;7371639;19;20982;-38
2023/10/07 05:12:23;;;;;;;19.07;5.73;;;;;;;12.97;100.00;101534.50;7397079;19;20415;-37
2023/10/07 05:14:55;;;;;;;13.80;3.13;;;;;;;12.98;100.00;101538.00;7371426;19;20394;-37
2023/10/07 05:17:24;;;;;;;12.03;2.80;;;;;;;13.00;100.00;101519.13;7392934;19;20400;-37
2023/10/07 05:19:58;;;;;;;24.50;3.60;;;;;;;12.98;100.00;101520.75;7370996;19;20395;-37
2023/10/07 05:22:30;;;;;;;11.37;2.37;;;;;;;12.95;100.00;101516.31;7394554;19;20397;-37
2023/10/07 05:25:01;;;;;;;12.20;1.90;;;;;;;13.01;100.00;101523.47;7370961;19;20423;-37
2023/10/07 05:27:32;;;;;;;12.63;3.83;;;;;;;13.00;100.00;101518.22;7394628;19;20390;-38
2023/10/07 05:30:03;;;;;;;8.43;2.37;;;;;;;12.98;100.00;101517.28;7371172;19;20986;-37
2023/10/07 05:32:35;;;;;;;12.10;2.70;;;;;;;13.01;100.00;101518.28;7392394;19;20394;-37
2023/10/07 05:35:06;;;;;;;9.57;2.20;;;;;;;12.99;100.00;101535.47;7371454;19;20424;-37
2023/10/07 05:37:36;;;;;;;15.00;2.57;;;;;;;13.00;100.00;101534.66;7393924;19;20808;-37
2023/10/07 05:40:07;;;;;;;17.73;3.67;;;;;;;12.99;100.00;101532.88;7372402;19;21083;-37
2023/10/07 05:42:39;;;;;;;17.00;2.57;;;;;;;12.99;100.00;101534.56;7393829;19;20390;-37
2023/10/07 05:45:10;;;;;;;19.80;3.47;;;;;;;12.98;100.00;101528.53;7370991;19;20414;-37
2023/10/07 05:47:45;;;;;;;19.03;2.23;;;;;;;12.95;100.00;101525.78;7392086;19;20403;-37
2023/10/07 05:50:15;;;;;;;10.60;2.60;;;;;;;12.95;100.00;101534.47;7370241;19;20507;-40
2023/10/07 05:52:45;;;;;;;12.00;2.47;;;;;;;12.99;100.00;101535.47;7395238;19;20418;-38
2023/10/07 05:55:15;;;;;;;10.80;2.50;;;;;;;12.99;100.00;101543.25;7369396;19;20398;-38
2023/10/07 05:57:45;;;;;;;16.23;2.27;;;;;;;12.98;100.00;101544.06;7396889;19;20927;-37
2023/10/07 06:00:17;;;;;;;9.27;2.57;;;;;;;13.00;100.00;101539.84;7368922;19;20429;-37
2023/10/07 06:02:49;;;;;;;8.87;1.67;;;;;;;12.94;100.00;101539.56;7388521;19;20392;-38
2023/10/07 06:05:20;;;;;;;10.00;2.33;;;;;;;12.93;100.00;101542.97;7371983;19;20514;-37
2023/10/07 06:07:50;;;;;;;14.43;3.27;;;;;;;12.93;100.00;101542.97;7395487;19;20407;-36
2023/10/07 06:10:19;;;;;;;11.70;2.10;;;;;;;12.93;100.00;101545.56;7371204;19;20467;-37
2023/10/07 06:12:49;;;;;;;17.93;2.27;;;;;;;12.93;100.00;101549.03;7395121;19;20427;-37
2023/10/07 06:15:20;;;;;;;11.43;1.90;;;;;;;12.95;100.00;101541.31;7370066;19;20423;-38
2023/10/07 06:17:52;;;;;;;11.70;3.07;;;;;;;12.96;100.00;101545.69;7395113;19;20532;-39
2023/10/07 06:20:26;;;;;;;14.47;2.17;;;;;;;12.95;100.00;101550.00;7369912;19;21078;-37
2023/10/07 06:22:56;;;;;;;18.97;2.40;;;;;;;12.93;100.00;101545.56;7393507;19;20471;-36
2023/10/07 06:25:30;;;;;;;9.80;2.60;;;;;;;12.88;100.00;101526.34;7370095;19;20419;-40
2023/10/07 06:28:04;;;;;;;8.50;1.80;;;;;;;12.90;100.00;101535.94;7396662;19;20761;-38
2023/10/07 06:30:36;;;;;;;8.83;1.80;;;;;;;12.87;100.00;101535.78;7368431;19;20540;-36
2023/10/07 06:33:12;;;;;;;10.80;2.00;;;;;;;12.90;100.00;101535.94;7393234;19;20399;-37
2023/10/07 06:35:41;;;;;;;11.07;2.53;;;;;;;12.93;100.00;101545.56;7370565;19;20422;-38
2023/10/07 06:38:11;;;;;;;7.43;2.07;;;;;;;12.90;100.00;101543.72;7390551;19;20483;-37
2023/10/07 06:40:43;;;;;;;17.67;1.83;;;;;;;12.88;100.00;101555.72;7368775;19;20475;-37
2023/10/07 06:43:14;;;;;;;16.23;1.93;;;;;;;12.91;100.00;101565.31;7395205;19;20411;-37
2023/10/07 06:45:44;;;;;;;7.53;1.90;;;;;;;12.91;100.00;101562.72;7371999;19;20427;-37
2023/10/07 06:48:23;;;;;;;10.13;2.20;;;;;;;12.89;100.00;101578.22;7395106;19;20414;-37
2023/10/07 06:50:54;;;;;;;11.37;2.60;;;;;;;12.93;100.00;101584.41;7367991;19;20489;-38
2023/10/07 06:53:24;;;;;;;9.00;2.20;;;;;;;12.90;100.00;101579.97;7394180;19;20777;-37
2023/10/07 06:55:55;;;;;;;7.90;1.50;;;;;;;12.89;100.00;101585.09;7371144;19;20895;-38
2023/10/07 06:58:25;;;;;;;11.50;3.80;;;;;;;12.90;100.00;101584.25;7395731;19;20411;-37
2023/10/07 07:00:56;;;;;;;12.43;3.90;;;;;;;12.94;100.00;101591.38;7367760;19;20458;-38
2023/10/07 07:03:31;;;;;;;8.80;2.90;;;;;;;12.94;100.00;101588.78;7396216;19;20482;-40
2023/10/07 07:06:03;;;;;;;4.90;2.00;;;;;;;12.93;100.00;101580.09;7367717;19;20442;-37
2023/10/07 07:08:34;;;;;;;6.00;2.00;;;;;;;12.89;100.00;101574.72;7392057;19;20414;-40
2023/10/07 07:11:02;;;;;;;12.23;1.90;;;;;;;12.88;100.00;101581.63;7368929;19;20554;-36
2023/10/07 07:13:35;;;;;;;10.80;1.93;;;;;;;12.91;100.00;101580.84;7391181;19;20403;-37
2023/10/07 07:16:08;;;;;;;8.67;1.67;;;;;;;12.89;100.00;101585.09;7364895;19;20455;-37
2023/10/07 07:18:41;;;;;;;9.73;1.43;;;;;;;12.98;100.00;101592.38;7395466;19;20411;-38
2023/10/07 07:21:31;;;;;;;11.47;3.10;;;;;;;13.03;100.00;101596.94;7368536;19;20886;-37
2023/10/07 07:24:03;;;;;;;16.93;1.57;;;;;;;12.96;100.00;101582.84;7367526;19;20403;-37
2023/10/07 07:26:30;;;;;;;7.70;1.77;;;;;;;12.97;100.00;101578.53;7388579;19;20958;-38
2023/10/07 07:29:04;;;;;;;5.03;1.57;;;;;;;12.96;100.00;101587.13;7366163;19;20478;-38
2023/10/07 07:31:35;;;;;;;35.60;12.60;;;;;;;12.99;100.00;101584.69;7386992;19;20434;-41
2023/10/07 07:34:20;;;;;;;27.73;11.10;;;;;;;13.01;100.00;101582.16;7367541;19;20407;-38
2023/10/07 07:36:56;;;;;;;10.47;3.57;;;;;;;13.01;100.00;101588.22;7391659;19;20411;-37
2023/10/07 07:39:30;;;;;;;9.43;1.70;;;;;;;12.99;100.00;101587.28;7367101;19;20405;-40
2023/10/07 07:42:15;;;;;;;21.07;7.67;;;;;;;13.02;100.00;101592.59;7387261;19;20463;-37
2023/10/07 07:44:56;;;;;;;21.50;8.60;;;;;;;13.07;100.00;101583.31;7364683;19;20419;-38
2023/10/07 07:47:30;;;;;;;21.37;8.20;;;;;;;13.12;100.00;101583.53;7391169;19;20420;-39
2023/10/07 07:50:07;;;;;;;9.40;2.40;;;;;;;13.13;100.00;101590.47;7365361;19;20394;-37
2023/10/07 07:52:39;;;;;;;7.43;2.50;;;;;;;13.15;100.00;101599.22;7391928;19;20387;-37
2023/10/07 07:55:12;;;;;;;22.40;7.10;;;;;;;13.14;100.00;101600.03;7371580;19;20470;-38
2023/10/07 07:57:44;;;;;;;25.57;9.80;;;;;;;13.16;100.00;101606.16;7392851;19;20379;-38
2023/10/07 08:00:20;;;;;;;8.83;2.80;;;;;;;13.19;100.00;101595.06;7369784;19;20425;-38
2023/10/07 08:02:55;;;;;;;5.67;1.73;;;;;;;13.10;100.00;101586.06;7393099;19;20387;-37
2023/10/07 08:05:34;;;;;;;5.83;2.17;;;;;;;13.13;100.00;101579.25;7371511;19;20430;-38
2023/10/07 08:08:09;;;;;;;19.97;8.10;;;;;;;13.13;100.00;101582.69;7396896;19;20416;-39
2023/10/07 08:10:39;;;;;;;12.73;2.10;;;;;;;13.19;100.00;101587.28;7369835;19;20431;-38
2023/10/07 08:13:09;;;;;;;4.90;1.63;;;;;;;13.12;100.00;101577.47;7393302;19;20395;-38
2023/10/07 08:15:41;;;;;;;8.53;3.30;;;;;;;13.16;100.00;101579.34;7370827;19;20787;-39
2023/10/07 08:18:13;;;;;;;8.93;2.17;;;;;;;13.17;100.00;101578.56;7393198;19;20400;-38
2023/10/07 08:20:48;;;;;;;6.10;2.30;;;;;;;13.13;100.00;101577.50;7369827;19;20430;-39
2023/10/07 08:23:28;;;;;;;10.17;1.67;;;;;;;13.16;100.00;101585.44;7391091;19;20399;-37
2023/10/07 08:26:08;;;;;;;12.03;2.30;;;;;;;13.19;100.00;101587.28;7368508;19;20471;-39
2023/10/07 08:28:46;;;;;;;12.63;1.67;;;;;;;13.21;100.00;101589.13;7382611;19;20402;-38
2023/10/07 08:31:18;;;;;;;10.13;2.67;;;;;;;13.15;100.00;101580.19;7366677;19;20876;-39
2023/10/07 08:34:09;;;;;;;8.40;2.73;;;;;;;13.05;100.00;101569.44;7388921;19;20408;-38
2023/10/07 08:36:47;;;;;;;5.07;1.53;;;;;;;13.02;100.00;101565.81;7368670;19;20467;-38
2023/10/07 08:39:19;;;;;;;3.93;1.47;;;;;;;13.03;100.00;101572.75;7370088;19;20470;-38
2023/10/07 08:41:52;;;;;;;3.57;1.43;;;;;;;13.05;100.00;101576.28;7388120;19;20453;-38
2023/10/07 08:44:29;;;;;;;5.63;1.40;;;;;;;13.03;100.00;101568.44;7369193;19;20411;-37
2023/10/07 08:47:04;;;;;;;6.33;1.90;;;;;;;12.99;100.00;101566.56;7386330;19;20415;-37
2023/10/07 08:49:36;;;;;;;5.20;1.20;;;;;;;13.01;100.00;101570.09;7369535;19;20446;-37
2023/10/07 08:52:11;;;;;;;5.90;2.03;;;;;;;13.12;100.00;101580.06;7389175;19;20443;-38
2023/10/07 08:54:44;;;;;;;14.10;2.40;;;;;;;13.17;100.00;101591.53;7366601;19;20429;-38
2023/10/07 08:57:22;;;;;;;24.97;8.13;;;;;;;13.03;100.00;101573.63;7399678;19;20422;-38
2023/10/07 08:59:52;;;;;;;9.83;3.30;;;;;;;13.03;100.00;101568.44;7373634;19;20974;-37
2023/10/07 09:02:30;;;;;;;9.47;2.47;;;;;;;13.08;100.00;101572.13;7394259;19;20463;-37
2023/10/07 09:05:05;;;;;;;51.40;24.97;;;;;;;13.03;100.00;101557.22;7373573;19;20423;-39
2023/10/07 09:07:38;;;;;;;6.77;2.87;;;;;;;13.06;100.00;101559.94;7396401;19;20418;-37
2023/10/07 09:10:13;;;;;;;4.27;2.13;;;;;;;12.99;100.00;101551.03;7371467;19;20419;-38
2023/10/07 09:12:46;;;;;;;28.03;10.67;;;;;;;12.95;100.00;101559.47;7397837;19;20401;-38
2023/10/07 09:15:20;;;;;;;9.87;1.73;;;;;;;12.97;100.00;101544.88;7371422;19;20550;-38
2023/10/07 09:17:52;;;;;;;7.20;1.97;;;;;;;13.00;100.00;101557.97;7396566;19;20512;-37
2023/10/07 09:20:29;;;;;;;6.10;2.07;;;;;;;13.01;100.00;101554.56;7369945;19;20458;-38
2023/10/07 09:23:07;;;;;;;5.83;2.07;;;;;;;13.00;100.00;101552.78;7397915;19;20507;-38
2023/10/07 09:25:37;;;;;;;5.03;2.50;;;;;;;13.08;100.00;101546.22;7372737;19;20426;-37
2023/10/07 09:28:07;;;;;;;4.57;1.57;;;;;;;13.02;100.00;101556.31;7395022;19;20403;-37
2023/10/07 09:30:44;;;;;;;5.10;2.03;;;;;;;13.05;100.00;101551.28;7372152;19;20463;-39
2023/10/07 09:33:17;;;;;;;5.40;1.40;;;;;;;12.99;100.00;101551.03;7396067;19;20423;-38
2023/10/07 09:36:22;;;;;;;6.43;2.10;;;;;;;13.02;100.00;101545.97;7372689;19;20970;-37
2023/10/07 09:38:44;;;;;;;4.07;1.50;;;;;;;13.01;100.00;101541.59;7396302;19;20419;-37
2023/10/07 09:41:23;;;;;;;3.43;1.13;;;;;;;13.03;100.00;101552.91;7371718;19;20467;-38
2023/10/07 09:43:56;;;;;;;6.57;1.40;;;;;;;13.07;100.00;101556.50;7375159;19;20410;-37
2023/10/07 09:46:24;;;;;;;4.30;1.70;;;;;;;13.07;100.00;101557.41;7394316;19;20407;-38
2023/10/07 09:49:06;;;;;;;5.57;1.23;;;;;;;13.11;100.00;101558.44;7374415;19;20406;-40
2023/10/07 09:51:48;;;;;;;4.23;1.50;;;;;;;13.12;100.00;101559.34;7394328;19;20435;-38
2023/10/07 09:54:47;;;;;;;5.67;2.67;;;;;;;13.12;100.00;101555.03;7372865;19;20951;-38
2023/10/07 09:57:29;;;;;;;8.90;2.50;;;;;;;13.13;100.00;101558.50;7394769;19;20491;-39
2023/10/07 10:03:59;;;;;;;3.90;1.50;;;;;;;13.00;100.00;101554.47;7390541;19;21007;-38
2023/10/07 10:06:39;;;;;;;8.10;3.17;;;;;;;12.98;100.00;101554.44;7374317;19;20446;-39
2023/10/07 10:09:14;;;;;;;3.73;1.40;;;;;;;12.99;100.00;101553.59;7374443;19;20416;-38
2023/10/07 10:11:56;;;;;;;3.00;0.80;;;;;;;12.97;100.00;101557.81;7393749;19;20460;-37
2023/10/07 10:14:40;;;;;;;2.10;0.73;;;;;;;12.95;100.00;101559.47;7369825;19;20494;-39
2023/10/07 10:17:12;;;;;;;3.30;1.30;;;;;;;12.83;100.00;101560.66;7395106;19;20399;-37
2023/10/07 10:19:47;;;;;;;10.20;4.03;;;;;;;12.86;100.00;101562.53;7372999;19;20427;-40
2023/10/07 10:22:24;;;;;;;4.40;1.00;;;;;;;12.80;100.00;101557.06;7392320;19;20443;-38
2023/10/07 10:24:59;;;;;;;3.50;0.80;;;;;;;12.70;100.00;101548.00;7372396;19;20421;-38
2023/10/07 10:27:31;;;;;;;5.97;1.03;;;;;;;12.73;100.00;101549.84;7393789;19;20420;-39
2023/10/07 10:30:04;;;;;;;3.20;1.07;;;;;;;12.79;100.00;101553.59;7369147;19;20518;-38
2023/10/07 10:32:40;;;;;;;5.83;0.90;;;;;;;12.80;100.00;101545.00;7396730;19;20407;-37
2023/10/07 10:35:11;;;;;;;5.77;2.13;;;;;;;12.78;100.00;101546.63;7369443;19;20443;-38
2023/10/07 10:37:42;;;;;;;4.30;1.83;;;;;;;12.86;100.00;101551.28;7396392;19;20459;-39
2023/10/07 10:40:19;;;;;;;2.53;1.10;;;;;;;12.93;100.00;101548.16;7369968;19;20430;-40
2023/10/07 10:42:52;;;;;;;4.73;2.30;;;;;;;12.97;100.00;101555.22;7396406;19;20405;-38
2023/10/07 10:45:24;;;;;;;2.17;1.00;;;;;;;13.00;100.00;101554.47;7369789;19;20423;-37
2023/10/07 10:47:56;;;;;;;6.07;2.97;;;;;;;12.94;100.00;101557.69;7394770;19;20399;-37
2023/10/07 10:50:28;;;;;;;4.63;2.10;;;;;;;12.96;100.00;101556.94;7370042;19;20474;-38
2023/10/07 10:53:00;;;;;;;2.63;1.07;;;;;;;12.90;100.00;101567.03;7394368;19;20423;-37
2023/10/07 10:55:37;;;;;;;9.90;4.50;;;;;;;12.92;100.00;101559.34;7369628;19;20438;-38
2023/10/07 10:58:18;;;;;;;3.40;1.10;;;;;;;12.87;100.00;101566.00;7395174;19;20407;-37
2023/10/07 11:00:51;;;;;;;6.27;3.00;;;;;;;12.86;100.00;101562.53;7369794;19;20836;-38
2023/10/07 11:03:21;;;;;;;3.33;1.70;;;;;;;12.88;100.00;101567.78;7393053;19;20479;-38
2023/10/07 11:05:53;;;;;;;2.27;0.70;;;;;;;12.89;100.00;101579.91;7370225;19;20451;-38
2023/10/07 11:08:25;;;;;;;6.23;2.03;;;;;;;12.83;100.00;101567.56;7393381;19;20435;-37
2023/10/07 11:10:57;;;;;;;2.23;1.20;;;;;;;12.79;100.00;101553.59;7368772;19;20462;-37
2023/10/07 11:13:34;;;;;;;2.73;0.90;;;;;;;12.82;100.00;101578.75;7393675;19;20405;-38
2023/10/07 11:16:09;;;;;;;3.80;0.70;;;;;;;12.85;100.00;101583.16;7368994;19;20450;-37
2023/10/07 11:18:45;;;;;;;1.67;0.90;;;;;;;12.79;100.00;101584.69;7395393;19;20427;-38
2023/10/07 11:21:18;;;;;;;4.73;1.93;;;;;;;12.70;100.00;101579.06;7367726;19;20462;-38
2023/10/07 11:23:46;;;;;;;2.70;1.00;;;;;;;12.77;100.00;101573.34;7394742;19;20407;-39
2023/10/07 11:26:16;;;;;;;2.47;0.67;;;;;;;12.70;100.00;101568.69;7378086;19;20518;-38
2023/10/07 11:28:49;;;;;;;3.03;1.00;;;;;;;12.70;100.00;101558.34;7399844;19;20411;-37
2023/10/07 11:31:20;;;;;;;3.70;1.53;;;;;;;12.75;100.00;101571.50;7376501;19;21014;-37
2023/10/07 11:33:53;;;;;;;1.70;0.60;;;;;;;12.68;100.00;101560.00;7399894;19;20424;-38
2023/10/07 11:36:24;;;;;;;4.30;0.70;;;;;;;12.65;100.00;101568.50;7376328;19;20435;-38
2023/10/07 11:38:53;;;;;;;4.17;1.53;;;;;;;12.68;100.00;101572.94;7377238;19;20935;-37
2023/10/07 11:41:23;;;;;;;8.47;1.27;;;;;;;12.69;100.00;101582.47;7394244;19;20454;-38
2023/10/07 11:43:57;;;;;;;2.53;0.90;;;;;;;12.66;100.00;101597.84;7376978;19;20403;-37
2023/10/07 11:46:27;;;;;;;2.77;1.50;;;;;;;12.61;100.00;101601.94;7397871;19;20763;-41
2023/10/07 11:48:59;;;;;;;3.20;0.90;;;;;;;12.67;100.00;101605.69;7375098;19;20427;-37
2023/10/07 11:51:32;;;;;;;2.27;0.73;;;;;;;12.58;100.00;101602.69;7393844;19;20531;-39
2023/10/07 11:54:02;;;;;;;2.73;0.97;;;;;;;12.72;100.00;101602.44;7371235;19;20471;-38